sensor_id;sensor_type;location;lat;lon;timestamp;P1;durP1;ratioP1;P2;durP2;ratioP2
36233;SDS011;43467;50.890;5.982;2022-08-04T00:10:54;11.32;;;2.78;;
36233;SDS011;43467;50.890;5.982;2022-08-04T00:13:24;5.28;;;2.08;;
36233;SDS011;43467;50.890;5.982;2022-08-04T00:15:57;4.88;;;2.22;;
36233;SDS011;43467;50.890;5.982;2022-08-04T00:21:10;9.52;;;2.08;;
36233;SDS011;43467;50.890;5.982;2022-08-04T00:23:37;6.00;;;2.80;;
36233;SDS011;43467;50.890;5.982;2022-08-04T00:26:03;7.28;;;2.53;;
36233;SDS011;43467;50.890;5.982;2022-08-04T00:28:29;6.00;;;2.35;;
36233;SDS011;43467;50.890;5.982;2022-08-04T00:30:55;5.60;;;2.47;;
36233;SDS011;43467;50.890;5.982;2022-08-04T00:33:21;7.75;;;2.60;;
36233;SDS011;43467;50.890;5.982;2022-08-04T00:35:47;8.27;;;3.30;;
36233;SDS011;43467;50.890;5.982;2022-08-04T00:38:14;5.70;;;2.47;;
36233;SDS011;43467;50.890;5.982;2022-08-04T00:40:57;5.45;;;2.70;;
36233;SDS011;43467;50.890;5.982;2022-08-04T00:43:34;10.30;;;2.95;;
36233;SDS011;43467;50.890;5.982;2022-08-04T00:51:47;6.38;;;2.15;;
36233;SDS011;43467;50.890;5.982;2022-08-04T00:54:19;4.63;;;2.30;;
36233;SDS011;43467;50.890;5.982;2022-08-04T00:57:22;5.57;;;2.20;;
36233;SDS011;43467;50.890;5.982;2022-08-04T01:02:24;8.37;;;3.13;;
36233;SDS011;43467;50.890;5.982;2022-08-04T01:05:04;6.93;;;2.47;;
36233;SDS011;43467;50.890;5.982;2022-08-04T01:10:05;4.03;;;2.15;;
36233;SDS011;43467;50.890;5.982;2022-08-04T01:18:08;3.25;;;2.20;;
36233;SDS011;43467;50.890;5.982;2022-08-04T01:29:12;7.55;;;2.70;;
36233;SDS011;43467;50.890;5.982;2022-08-04T01:34:30;4.68;;;2.30;;
36233;SDS011;43467;50.890;5.982;2022-08-04T01:39:37;9.27;;;2.20;;
36233;SDS011;43467;50.890;5.982;2022-08-04T01:42:13;5.80;;;2.25;;
36233;SDS011;43467;50.890;5.982;2022-08-04T01:44:42;6.22;;;2.13;;
36233;SDS011;43467;50.890;5.982;2022-08-04T01:47:11;7.07;;;2.25;;
36233;SDS011;43467;50.890;5.982;2022-08-04T01:49:40;8.73;;;2.28;;
36233;SDS011;43467;50.890;5.982;2022-08-04T01:52:13;11.13;;;2.72;;
36233;SDS011;43467;50.890;5.982;2022-08-04T01:54:41;6.18;;;2.78;;
36233;SDS011;43467;50.890;5.982;2022-08-04T01:57:08;4.68;;;2.28;;
36233;SDS011;43467;50.890;5.982;2022-08-04T01:59:35;3.40;;;1.92;;
36233;SDS011;43467;50.890;5.982;2022-08-04T02:02:03;8.70;;;2.53;;
36233;SDS011;43467;50.890;5.982;2022-08-04T02:04:30;7.03;;;1.98;;
36233;SDS011;43467;50.890;5.982;2022-08-04T02:09:46;5.07;;;2.13;;
36233;SDS011;43467;50.890;5.982;2022-08-04T02:20:38;5.72;;;2.08;;
36233;SDS011;43467;50.890;5.982;2022-08-04T02:23:08;8.45;;;2.45;;
36233;SDS011;43467;50.890;5.982;2022-08-04T02:25:40;6.10;;;2.47;;
36233;SDS011;43467;50.890;5.982;2022-08-04T02:30:44;4.30;;;2.17;;
36233;SDS011;43467;50.890;5.982;2022-08-04T02:33:20;6.88;;;2.35;;
36233;SDS011;43467;50.890;5.982;2022-08-04T02:35:52;4.40;;;1.98;;
36233;SDS011;43467;50.890;5.982;2022-08-04T02:38:31;6.50;;;2.20;;
36233;SDS011;43467;50.890;5.982;2022-08-04T02:41:15;4.63;;;1.90;;
36233;SDS011;43467;50.890;5.982;2022-08-04T02:43:43;5.57;;;2.03;;
36233;SDS011;43467;50.890;5.982;2022-08-04T02:46:12;3.08;;;2.13;;
36233;SDS011;43467;50.890;5.982;2022-08-04T02:48:41;4.78;;;2.40;;
36233;SDS011;43467;50.890;5.982;2022-08-04T02:51:10;5.43;;;2.20;;
36233;SDS011;43467;50.890;5.982;2022-08-04T02:53:37;6.75;;;2.65;;
36233;SDS011;43467;50.890;5.982;2022-08-04T02:56:06;6.93;;;2.40;;
36233;SDS011;43467;50.890;5.982;2022-08-04T02:58:33;3.08;;;2.38;;
36233;SDS011;43467;50.890;5.982;2022-08-04T03:00:59;2.70;;;1.95;;
36233;SDS011;43467;50.890;5.982;2022-08-04T03:03:39;6.50;;;2.45;;
36233;SDS011;43467;50.890;5.982;2022-08-04T03:06:57;13.48;;;2.67;;
36233;SDS011;43467;50.890;5.982;2022-08-04T03:44:21;5.38;;;2.05;;
36233;SDS011;43467;50.890;5.982;2022-08-04T03:47:18;6.22;;;2.38;;
36233;SDS011;43467;50.890;5.982;2022-08-04T03:55:38;3.90;;;2.00;;
36233;SDS011;43467;50.890;5.982;2022-08-04T04:09:36;7.55;;;2.38;;
36233;SDS011;43467;50.890;5.982;2022-08-04T04:15:03;6.30;;;2.13;;
36233;SDS011;43467;50.890;5.982;2022-08-04T04:18:29;4.70;;;2.22;;
36233;SDS011;43467;50.890;5.982;2022-08-04T04:23:31;4.05;;;2.20;;
36233;SDS011;43467;50.890;5.982;2022-08-04T04:26:35;6.18;;;2.25;;
36233;SDS011;43467;50.890;5.982;2022-08-04T04:37:18;6.35;;;2.40;;
36233;SDS011;43467;50.890;5.982;2022-08-04T04:45:25;7.72;;;2.58;;
36233;SDS011;43467;50.890;5.982;2022-08-04T04:48:03;7.90;;;3.38;;
36233;SDS011;43467;50.890;5.982;2022-08-04T04:50:41;5.55;;;2.78;;
36233;SDS011;43467;50.890;5.982;2022-08-04T04:55:47;5.32;;;2.63;;
36233;SDS011;43467;50.890;5.982;2022-08-04T04:58:20;4.60;;;2.25;;
36233;SDS011;43467;50.890;5.982;2022-08-04T05:01:12;6.10;;;2.65;;
36233;SDS011;43467;50.890;5.982;2022-08-04T05:04:02;6.35;;;2.50;;
36233;SDS011;43467;50.890;5.982;2022-08-04T05:06:55;5.55;;;2.40;;
36233;SDS011;43467;50.890;5.982;2022-08-04T05:15:05;6.53;;;2.70;;
36233;SDS011;43467;50.890;5.982;2022-08-04T05:17:33;7.57;;;2.38;;
36233;SDS011;43467;50.890;5.982;2022-08-04T05:22:41;4.75;;;2.50;;
36233;SDS011;43467;50.890;5.982;2022-08-04T05:27:49;7.60;;;3.08;;
36233;SDS011;43467;50.890;5.982;2022-08-04T05:30:20;6.63;;;3.03;;
36233;SDS011;43467;50.890;5.982;2022-08-04T05:32:52;7.90;;;2.42;;
36233;SDS011;43467;50.890;5.982;2022-08-04T05:35:35;7.05;;;2.88;;
36233;SDS011;43467;50.890;5.982;2022-08-04T05:38:07;8.00;;;2.50;;
36233;SDS011;43467;50.890;5.982;2022-08-04T05:40:38;3.92;;;2.50;;
36233;SDS011;43467;50.890;5.982;2022-08-04T05:43:04;5.53;;;2.50;;
36233;SDS011;43467;50.890;5.982;2022-08-04T05:45:31;6.57;;;2.53;;
36233;SDS011;43467;50.890;5.982;2022-08-04T05:48:02;6.65;;;3.05;;
36233;SDS011;43467;50.890;5.982;2022-08-04T05:50:30;5.80;;;2.40;;
36233;SDS011;43467;50.890;5.982;2022-08-04T05:52:57;5.38;;;2.40;;
36233;SDS011;43467;50.890;5.982;2022-08-04T05:55:23;7.80;;;2.33;;
36233;SDS011;43467;50.890;5.982;2022-08-04T05:57:50;10.15;;;3.03;;
36233;SDS011;43467;50.890;5.982;2022-08-04T06:00:16;4.70;;;2.72;;
36233;SDS011;43467;50.890;5.982;2022-08-04T06:02:43;3.63;;;2.10;;
36233;SDS011;43467;50.890;5.982;2022-08-04T06:05:13;7.57;;;2.40;;
36233;SDS011;43467;50.890;5.982;2022-08-04T06:07:42;5.97;;;2.53;;
36233;SDS011;43467;50.890;5.982;2022-08-04T06:10:08;4.97;;;2.10;;
36233;SDS011;43467;50.890;5.982;2022-08-04T06:12:41;9.38;;;2.55;;
36233;SDS011;43467;50.890;5.982;2022-08-04T06:15:10;8.25;;;2.92;;
36233;SDS011;43467;50.890;5.982;2022-08-04T06:18:00;3.42;;;2.10;;
36233;SDS011;43467;50.890;5.982;2022-08-04T06:20:28;4.53;;;2.60;;
36233;SDS011;43467;50.890;5.982;2022-08-04T06:22:59;5.45;;;2.22;;
36233;SDS011;43467;50.890;5.982;2022-08-04T06:25:28;4.50;;;2.15;;
36233;SDS011;43467;50.890;5.982;2022-08-04T06:27:57;3.95;;;1.90;;
36233;SDS011;43467;50.890;5.982;2022-08-04T06:30:24;2.92;;;1.92;;
36233;SDS011;43467;50.890;5.982;2022-08-04T06:32:52;5.05;;;2.15;;
36233;SDS011;43467;50.890;5.982;2022-08-04T06:35:24;3.55;;;1.90;;
36233;SDS011;43467;50.890;5.982;2022-08-04T06:37:51;4.00;;;1.63;;
36233;SDS011;43467;50.890;5.982;2022-08-04T06:40:22;7.57;;;2.38;;
36233;SDS011;43467;50.890;5.982;2022-08-04T06:42:49;4.68;;;1.90;;
36233;SDS011;43467;50.890;5.982;2022-08-04T06:45:15;6.45;;;2.65;;
36233;SDS011;43467;50.890;5.982;2022-08-04T06:47:43;7.13;;;2.22;;
36233;SDS011;43467;50.890;5.982;2022-08-04T06:50:10;5.55;;;1.83;;
36233;SDS011;43467;50.890;5.982;2022-08-04T06:52:36;6.53;;;2.35;;
36233;SDS011;43467;50.890;5.982;2022-08-04T06:55:03;8.27;;;2.47;;
36233;SDS011;43467;50.890;5.982;2022-08-04T06:57:30;3.72;;;1.85;;
36233;SDS011;43467;50.890;5.982;2022-08-04T07:00:10;7.40;;;2.00;;
36233;SDS011;43467;50.890;5.982;2022-08-04T07:02:39;5.28;;;1.60;;
36233;SDS011;43467;50.890;5.982;2022-08-04T07:05:08;7.60;;;2.00;;
36233;SDS011;43467;50.890;5.982;2022-08-04T07:07:34;9.52;;;2.40;;
36233;SDS011;43467;50.890;5.982;2022-08-04T07:10:01;5.15;;;1.90;;
36233;SDS011;43467;50.890;5.982;2022-08-04T07:12:27;9.73;;;1.70;;
36233;SDS011;43467;50.890;5.982;2022-08-04T07:14:53;6.55;;;2.22;;
36233;SDS011;43467;50.890;5.982;2022-08-04T07:17:19;5.38;;;1.70;;
36233;SDS011;43467;50.890;5.982;2022-08-04T07:19:45;3.80;;;2.25;;
36233;SDS011;43467;50.890;5.982;2022-08-04T07:22:11;5.03;;;1.90;;
36233;SDS011;43467;50.890;5.982;2022-08-04T07:24:37;5.10;;;1.70;;
36233;SDS011;43467;50.890;5.982;2022-08-04T07:27:05;6.75;;;2.17;;
36233;SDS011;43467;50.890;5.982;2022-08-04T07:29:31;5.45;;;1.90;;
36233;SDS011;43467;50.890;5.982;2022-08-04T07:31:58;4.72;;;2.10;;
36233;SDS011;43467;50.890;5.982;2022-08-04T07:34:25;6.30;;;2.30;;
36233;SDS011;43467;50.890;5.982;2022-08-04T07:36:52;4.60;;;2.50;;
36233;SDS011;43467;50.890;5.982;2022-08-04T07:39:19;4.82;;;2.08;;
36233;SDS011;43467;50.890;5.982;2022-08-04T07:41:46;3.28;;;2.03;;
36233;SDS011;43467;50.890;5.982;2022-08-04T07:44:13;5.93;;;2.70;;
36233;SDS011;43467;50.890;5.982;2022-08-04T07:46:40;4.70;;;2.50;;
36233;SDS011;43467;50.890;5.982;2022-08-04T07:49:06;5.45;;;2.10;;
36233;SDS011;43467;50.890;5.982;2022-08-04T07:51:33;4.60;;;2.10;;
36233;SDS011;43467;50.890;5.982;2022-08-04T07:53:59;5.78;;;2.67;;
36233;SDS011;43467;50.890;5.982;2022-08-04T07:56:29;5.25;;;1.85;;
36233;SDS011;43467;50.890;5.982;2022-08-04T07:58:55;5.10;;;2.38;;
36233;SDS011;43467;50.890;5.982;2022-08-04T08:01:21;4.63;;;2.47;;
36233;SDS011;43467;50.890;5.982;2022-08-04T08:03:47;3.45;;;2.05;;
36233;SDS011;43467;50.890;5.982;2022-08-04T08:06:14;4.70;;;2.70;;
36233;SDS011;43467;50.890;5.982;2022-08-04T08:08:40;6.60;;;2.17;;
36233;SDS011;43467;50.890;5.982;2022-08-04T08:11:08;3.42;;;1.77;;
36233;SDS011;43467;50.890;5.982;2022-08-04T08:13:34;5.57;;;2.50;;
36233;SDS011;43467;50.890;5.982;2022-08-04T08:16:00;10.10;;;2.72;;
36233;SDS011;43467;50.890;5.982;2022-08-04T08:18:26;8.45;;;2.33;;
36233;SDS011;43467;50.890;5.982;2022-08-04T08:20:52;4.32;;;2.47;;
36233;SDS011;43467;50.890;5.982;2022-08-04T08:23:19;5.28;;;2.45;;
36233;SDS011;43467;50.890;5.982;2022-08-04T08:25:45;12.13;;;2.80;;
36233;SDS011;43467;50.890;5.982;2022-08-04T08:28:10;13.05;;;3.75;;
36233;SDS011;43467;50.890;5.982;2022-08-04T08:30:36;13.05;;;2.83;;
36233;SDS011;43467;50.890;5.982;2022-08-04T08:33:05;17.88;;;3.92;;
36233;SDS011;43467;50.890;5.982;2022-08-04T08:35:51;8.55;;;3.10;;
36233;SDS011;43467;50.890;5.982;2022-08-04T08:38:33;11.75;;;2.42;;
36233;SDS011;43467;50.890;5.982;2022-08-04T08:41:22;9.23;;;2.72;;
36233;SDS011;43467;50.890;5.982;2022-08-04T08:44:40;10.85;;;2.70;;
36233;SDS011;43467;50.890;5.982;2022-08-04T08:52:29;7.60;;;2.22;;
36233;SDS011;43467;50.890;5.982;2022-08-04T08:58:05;5.93;;;3.58;;
36233;SDS011;43467;50.890;5.982;2022-08-04T09:11:15;5.53;;;2.55;;
36233;SDS011;43467;50.890;5.982;2022-08-04T09:13:47;11.90;;;2.85;;
36233;SDS011;43467;50.890;5.982;2022-08-04T09:16:39;5.20;;;2.20;;
36233;SDS011;43467;50.890;5.982;2022-08-04T09:19:16;7.80;;;2.47;;
36233;SDS011;43467;50.890;5.982;2022-08-04T09:24:40;14.35;;;2.70;;
36233;SDS011;43467;50.890;5.982;2022-08-04T09:27:25;7.15;;;2.65;;
36233;SDS011;43467;50.890;5.982;2022-08-04T09:30:13;9.00;;;2.10;;
36233;SDS011;43467;50.890;5.982;2022-08-04T09:38:45;9.43;;;2.30;;
36233;SDS011;43467;50.890;5.982;2022-08-04T09:41:27;4.68;;;2.05;;
36233;SDS011;43467;50.890;5.982;2022-08-04T09:46:58;7.32;;;2.42;;
36233;SDS011;43467;50.890;5.982;2022-08-04T09:49:46;6.10;;;2.25;;
36233;SDS011;43467;50.890;5.982;2022-08-04T09:52:40;11.65;;;2.80;;
36233;SDS011;43467;50.890;5.982;2022-08-04T09:55:17;9.38;;;2.40;;
36233;SDS011;43467;50.890;5.982;2022-08-04T09:58:06;7.82;;;2.25;;
36233;SDS011;43467;50.890;5.982;2022-08-04T10:00:41;10.27;;;2.15;;
36233;SDS011;43467;50.890;5.982;2022-08-04T10:03:10;7.60;;;2.05;;
36233;SDS011;43467;50.890;5.982;2022-08-04T10:08:15;7.03;;;2.38;;
36233;SDS011;43467;50.890;5.982;2022-08-04T10:19:44;3.90;;;2.08;;
36233;SDS011;43467;50.890;5.982;2022-08-04T10:22:19;4.78;;;2.25;;
36233;SDS011;43467;50.890;5.982;2022-08-04T10:27:23;5.93;;;2.67;;
36233;SDS011;43467;50.890;5.982;2022-08-04T10:29:56;8.23;;;2.83;;
36233;SDS011;43467;50.890;5.982;2022-08-04T10:32:33;9.77;;;2.92;;
36233;SDS011;43467;50.890;5.982;2022-08-04T10:35:07;6.40;;;2.88;;
36233;SDS011;43467;50.890;5.982;2022-08-04T10:37:39;7.45;;;2.70;;
36233;SDS011;43467;50.890;5.982;2022-08-04T10:40:27;10.95;;;2.80;;
36233;SDS011;43467;50.890;5.982;2022-08-04T10:43:11;9.90;;;2.92;;
36233;SDS011;43467;50.890;5.982;2022-08-04T10:46:17;11.57;;;3.08;;
36233;SDS011;43467;50.890;5.982;2022-08-04T10:49:01;9.20;;;3.53;;
36233;SDS011;43467;50.890;5.982;2022-08-04T10:56:57;8.35;;;3.22;;
36233;SDS011;43467;50.890;5.982;2022-08-04T10:59:32;6.65;;;3.33;;
36233;SDS011;43467;50.890;5.982;2022-08-04T11:07:47;9.30;;;3.72;;
36233;SDS011;43467;50.890;5.982;2022-08-04T11:10:16;10.75;;;3.95;;
36233;SDS011;43467;50.890;5.982;2022-08-04T11:12:45;9.98;;;3.28;;
36233;SDS011;43467;50.890;5.982;2022-08-04T11:15:19;10.73;;;3.88;;
36233;SDS011;43467;50.890;5.982;2022-08-04T11:17:58;9.63;;;3.85;;
36233;SDS011;43467;50.890;5.982;2022-08-04T11:20:41;6.45;;;3.42;;
36233;SDS011;43467;50.890;5.982;2022-08-04T11:23:14;6.97;;;2.95;;
36233;SDS011;43467;50.890;5.982;2022-08-04T11:28:48;10.13;;;3.13;;
36233;SDS011;43467;50.890;5.982;2022-08-04T11:31:24;8.18;;;3.10;;
36233;SDS011;43467;50.890;5.982;2022-08-04T11:34:03;9.65;;;3.63;;
36233;SDS011;43467;50.890;5.982;2022-08-04T11:36:40;8.60;;;3.13;;
36233;SDS011;43467;50.890;5.982;2022-08-04T11:39:27;12.77;;;3.08;;
36233;SDS011;43467;50.890;5.982;2022-08-04T11:41:59;12.00;;;3.70;;
36233;SDS011;43467;50.890;5.982;2022-08-04T11:44:48;8.57;;;3.67;;
36233;SDS011;43467;50.890;5.982;2022-08-04T11:47:29;10.98;;;3.60;;
36233;SDS011;43467;50.890;5.982;2022-08-04T11:52:29;8.52;;;3.70;;
36233;SDS011;43467;50.890;5.982;2022-08-04T11:54:57;10.73;;;3.28;;
36233;SDS011;43467;50.890;5.982;2022-08-04T11:57:27;11.65;;;3.58;;
36233;SDS011;43467;50.890;5.982;2022-08-04T11:59:54;9.93;;;3.03;;
36233;SDS011;43467;50.890;5.982;2022-08-04T12:05:08;7.60;;;2.83;;
36233;SDS011;43467;50.890;5.982;2022-08-04T12:15:31;9.10;;;3.85;;
36233;SDS011;43467;50.890;5.982;2022-08-04T12:20:42;14.52;;;2.80;;
36233;SDS011;43467;50.890;5.982;2022-08-04T12:26:05;7.82;;;2.90;;
36233;SDS011;43467;50.890;5.982;2022-08-04T12:28:39;8.13;;;2.47;;
36233;SDS011;43467;50.890;5.982;2022-08-04T12:31:18;6.95;;;2.30;;
36233;SDS011;43467;50.890;5.982;2022-08-04T12:33:53;8.60;;;2.97;;
36233;SDS011;43467;50.890;5.982;2022-08-04T12:36:36;18.13;;;4.47;;
36233;SDS011;43467;50.890;5.982;2022-08-04T12:39:08;4.60;;;2.20;;
36233;SDS011;43467;50.890;5.982;2022-08-04T12:41:38;5.20;;;2.17;;
36233;SDS011;43467;50.890;5.982;2022-08-04T12:44:08;7.20;;;2.47;;
36233;SDS011;43467;50.890;5.982;2022-08-04T12:46:36;8.27;;;2.55;;
36233;SDS011;43467;50.890;5.982;2022-08-04T12:49:02;9.20;;;2.13;;
36233;SDS011;43467;50.890;5.982;2022-08-04T12:51:35;7.60;;;3.72;;
36233;SDS011;43467;50.890;5.982;2022-08-04T12:54:03;8.70;;;2.28;;
36233;SDS011;43467;50.890;5.982;2022-08-04T12:56:30;13.00;;;3.35;;
36233;SDS011;43467;50.890;5.982;2022-08-04T12:59:01;8.68;;;3.13;;
36233;SDS011;43467;50.890;5.982;2022-08-04T13:01:30;7.32;;;2.38;;
36233;SDS011;43467;50.890;5.982;2022-08-04T13:06:31;6.50;;;2.45;;
36233;SDS011;43467;50.890;5.982;2022-08-04T13:09:06;11.15;;;2.47;;
36233;SDS011;43467;50.890;5.982;2022-08-04T13:11:38;7.40;;;2.30;;
36233;SDS011;43467;50.890;5.982;2022-08-04T13:14:05;13.52;;;3.30;;
36233;SDS011;43467;50.890;5.982;2022-08-04T13:16:32;9.07;;;2.63;;
36233;SDS011;43467;50.890;5.982;2022-08-04T13:18:58;7.72;;;2.25;;
36233;SDS011;43467;50.890;5.982;2022-08-04T13:21:25;7.53;;;2.60;;
36233;SDS011;43467;50.890;5.982;2022-08-04T13:24:00;10.93;;;2.88;;
36233;SDS011;43467;50.890;5.982;2022-08-04T13:26:30;9.55;;;3.15;;
36233;SDS011;43467;50.890;5.982;2022-08-04T13:28:57;9.20;;;2.80;;
36233;SDS011;43467;50.890;5.982;2022-08-04T13:31:26;14.00;;;2.80;;
36233;SDS011;43467;50.890;5.982;2022-08-04T13:33:54;6.65;;;2.75;;
36233;SDS011;43467;50.890;5.982;2022-08-04T13:36:29;8.52;;;3.17;;
36233;SDS011;43467;50.890;5.982;2022-08-04T13:38:57;9.25;;;2.80;;
36233;SDS011;43467;50.890;5.982;2022-08-04T13:41:26;7.07;;;3.00;;
36233;SDS011;43467;50.890;5.982;2022-08-04T13:43:54;7.97;;;3.13;;
36233;SDS011;43467;50.890;5.982;2022-08-04T13:46:23;10.60;;;3.53;;
36233;SDS011;43467;50.890;5.982;2022-08-04T13:48:51;8.70;;;3.58;;
36233;SDS011;43467;50.890;5.982;2022-08-04T13:51:18;14.38;;;3.67;;
36233;SDS011;43467;50.890;5.982;2022-08-04T13:53:45;10.40;;;3.13;;
36233;SDS011;43467;50.890;5.982;2022-08-04T13:56:19;10.00;;;3.60;;
36233;SDS011;43467;50.890;5.982;2022-08-04T13:58:47;9.68;;;3.35;;
36233;SDS011;43467;50.890;5.982;2022-08-04T14:01:21;10.93;;;3.00;;
36233;SDS011;43467;50.890;5.982;2022-08-04T14:06:18;9.27;;;2.97;;
36233;SDS011;43467;50.890;5.982;2022-08-04T14:08:50;10.30;;;3.33;;
36233;SDS011;43467;50.890;5.982;2022-08-04T14:11:45;7.47;;;3.00;;
36233;SDS011;43467;50.890;5.982;2022-08-04T14:14:12;9.15;;;3.22;;
36233;SDS011;43467;50.890;5.982;2022-08-04T14:19:46;9.00;;;2.90;;
36233;SDS011;43467;50.890;5.982;2022-08-04T14:24:54;7.53;;;2.70;;
36233;SDS011;43467;50.890;5.982;2022-08-04T14:27:21;8.88;;;3.15;;
36233;SDS011;43467;50.890;5.982;2022-08-04T14:29:47;9.95;;;3.58;;
36233;SDS011;43467;50.890;5.982;2022-08-04T14:32:12;12.57;;;3.80;;
36233;SDS011;43467;50.890;5.982;2022-08-04T14:34:38;12.02;;;2.65;;
36233;SDS011;43467;50.890;5.982;2022-08-04T14:37:05;10.00;;;2.65;;
36233;SDS011;43467;50.890;5.982;2022-08-04T14:39:42;7.82;;;2.83;;
36233;SDS011;43467;50.890;5.982;2022-08-04T14:42:11;8.85;;;3.20;;
36233;SDS011;43467;50.890;5.982;2022-08-04T14:52:33;8.82;;;3.30;;
36233;SDS011;43467;50.890;5.982;2022-08-04T14:55:13;10.90;;;2.97;;
36233;SDS011;43467;50.890;5.982;2022-08-04T14:57:40;9.52;;;3.13;;
36233;SDS011;43467;50.890;5.982;2022-08-04T15:00:05;6.47;;;2.70;;
36233;SDS011;43467;50.890;5.982;2022-08-04T15:02:31;11.65;;;3.30;;
36233;SDS011;43467;50.890;5.982;2022-08-04T15:04:59;6.97;;;3.15;;
36233;SDS011;43467;50.890;5.982;2022-08-04T15:07:26;10.13;;;3.67;;
36233;SDS011;43467;50.890;5.982;2022-08-04T15:09:52;11.00;;;3.92;;
36233;SDS011;43467;50.890;5.982;2022-08-04T15:12:18;7.22;;;2.88;;
36233;SDS011;43467;50.890;5.982;2022-08-04T15:14:43;9.35;;;3.13;;
36233;SDS011;43467;50.890;5.982;2022-08-04T15:17:09;6.75;;;2.60;;
36233;SDS011;43467;50.890;5.982;2022-08-04T15:19:36;8.95;;;3.30;;
36233;SDS011;43467;50.890;5.982;2022-08-04T15:22:02;14.00;;;3.70;;
36233;SDS011;43467;50.890;5.982;2022-08-04T15:24:29;11.13;;;3.47;;
36233;SDS011;43467;50.890;5.982;2022-08-04T15:26:55;13.27;;;3.70;;
36233;SDS011;43467;50.890;5.982;2022-08-04T15:29:34;8.70;;;2.88;;
36233;SDS011;43467;50.890;5.982;2022-08-04T15:32:04;12.93;;;3.55;;
36233;SDS011;43467;50.890;5.982;2022-08-04T15:34:47;9.38;;;3.05;;
36233;SDS011;43467;50.890;5.982;2022-08-04T15:37:17;11.52;;;2.72;;
36233;SDS011;43467;50.890;5.982;2022-08-04T15:45:22;12.00;;;3.40;;
36233;SDS011;43467;50.890;5.982;2022-08-04T15:50:26;11.23;;;3.70;;
36233;SDS011;43467;50.890;5.982;2022-08-04T15:53:02;11.10;;;3.63;;
36233;SDS011;43467;50.890;5.982;2022-08-04T15:58:02;10.90;;;4.40;;
36233;SDS011;43467;50.890;5.982;2022-08-04T16:21:52;7.70;;;3.47;;
36233;SDS011;43467;50.890;5.982;2022-08-04T16:27:04;9.63;;;3.30;;
36233;SDS011;43467;50.890;5.982;2022-08-04T16:29:43;8.00;;;3.67;;
36233;SDS011;43467;50.890;5.982;2022-08-04T16:32:11;8.38;;;3.03;;
36233;SDS011;43467;50.890;5.982;2022-08-04T16:34:40;8.68;;;3.50;;
36233;SDS011;43467;50.890;5.982;2022-08-04T16:37:35;11.75;;;3.47;;
36233;SDS011;43467;50.890;5.982;2022-08-04T16:42:52;11.65;;;2.72;;
36233;SDS011;43467;50.890;5.982;2022-08-04T16:45:21;8.73;;;2.83;;
36233;SDS011;43467;50.890;5.982;2022-08-04T16:50:15;9.13;;;3.20;;
36233;SDS011;43467;50.890;5.982;2022-08-04T16:52:43;11.10;;;3.45;;
36233;SDS011;43467;50.890;5.982;2022-08-04T16:55:10;6.45;;;2.33;;
36233;SDS011;43467;50.890;5.982;2022-08-04T16:57:36;9.63;;;3.35;;
36233;SDS011;43467;50.890;5.982;2022-08-04T17:00:03;7.93;;;3.30;;
36233;SDS011;43467;50.890;5.982;2022-08-04T17:02:29;11.18;;;3.17;;
36233;SDS011;43467;50.890;5.982;2022-08-04T17:04:55;11.30;;;3.13;;
36233;SDS011;43467;50.890;5.982;2022-08-04T17:07:20;9.88;;;3.42;;
36233;SDS011;43467;50.890;5.982;2022-08-04T17:09:49;6.70;;;2.57;;
36233;SDS011;43467;50.890;5.982;2022-08-04T17:12:15;10.18;;;3.15;;
36233;SDS011;43467;50.890;5.982;2022-08-04T17:14:41;9.18;;;3.33;;
36233;SDS011;43467;50.890;5.982;2022-08-04T17:17:06;11.65;;;3.60;;
36233;SDS011;43467;50.890;5.982;2022-08-04T17:19:32;6.72;;;3.05;;
36233;SDS011;43467;50.890;5.982;2022-08-04T17:22:04;12.20;;;3.70;;
36233;SDS011;43467;50.890;5.982;2022-08-04T17:24:34;7.70;;;3.28;;
36233;SDS011;43467;50.890;5.982;2022-08-04T17:27:02;10.68;;;4.10;;
36233;SDS011;43467;50.890;5.982;2022-08-04T17:29:28;6.65;;;3.15;;
36233;SDS011;43467;50.890;5.982;2022-08-04T17:31:54;9.40;;;3.17;;
36233;SDS011;43467;50.890;5.982;2022-08-04T17:34:20;6.97;;;3.10;;
36233;SDS011;43467;50.890;5.982;2022-08-04T17:36:46;7.55;;;3.33;;
36233;SDS011;43467;50.890;5.982;2022-08-04T17:39:13;11.40;;;3.47;;
36233;SDS011;43467;50.890;5.982;2022-08-04T17:41:41;9.30;;;2.63;;
36233;SDS011;43467;50.890;5.982;2022-08-04T17:44:06;8.55;;;2.78;;
36233;SDS011;43467;50.890;5.982;2022-08-04T17:51:44;12.15;;;3.58;;
36233;SDS011;43467;50.890;5.982;2022-08-04T17:54:14;9.35;;;3.40;;
36233;SDS011;43467;50.890;5.982;2022-08-04T17:56:44;8.40;;;3.65;;
36233;SDS011;43467;50.890;5.982;2022-08-04T18:01:45;7.90;;;3.13;;
36233;SDS011;43467;50.890;5.982;2022-08-04T18:11:55;10.10;;;2.88;;
36233;SDS011;43467;50.890;5.982;2022-08-04T18:14:25;6.50;;;3.33;;
36233;SDS011;43467;50.890;5.982;2022-08-04T18:16:52;8.80;;;2.95;;
36233;SDS011;43467;50.890;5.982;2022-08-04T18:19:18;7.03;;;3.20;;
36233;SDS011;43467;50.890;5.982;2022-08-04T18:21:43;4.85;;;2.13;;
36233;SDS011;43467;50.890;5.982;2022-08-04T18:24:12;8.65;;;3.22;;
36233;SDS011;43467;50.890;5.982;2022-08-04T18:26:38;6.75;;;3.13;;
36233;SDS011;43467;50.890;5.982;2022-08-04T18:29:05;6.35;;;2.90;;
36233;SDS011;43467;50.890;5.982;2022-08-04T18:31:31;7.20;;;3.13;;
36233;SDS011;43467;50.890;5.982;2022-08-04T18:34:02;9.55;;;2.95;;
36233;SDS011;43467;50.890;5.982;2022-08-04T18:36:29;7.72;;;2.47;;
36233;SDS011;43467;50.890;5.982;2022-08-04T18:38:55;8.80;;;3.42;;
36233;SDS011;43467;50.890;5.982;2022-08-04T18:41:20;11.00;;;3.85;;
36233;SDS011;43467;50.890;5.982;2022-08-04T18:43:45;11.48;;;3.00;;
36233;SDS011;43467;50.890;5.982;2022-08-04T18:46:11;7.20;;;3.30;;
36233;SDS011;43467;50.890;5.982;2022-08-04T18:48:36;7.18;;;3.15;;
36233;SDS011;43467;50.890;5.982;2022-08-04T18:51:02;7.70;;;3.17;;
36233;SDS011;43467;50.890;5.982;2022-08-04T18:53:29;10.93;;;3.65;;
36233;SDS011;43467;50.890;5.982;2022-08-04T18:55:54;9.23;;;2.95;;
36233;SDS011;43467;50.890;5.982;2022-08-04T18:58:20;5.90;;;2.65;;
36233;SDS011;43467;50.890;5.982;2022-08-04T19:00:45;7.15;;;2.95;;
36233;SDS011;43467;50.890;5.982;2022-08-04T19:03:11;8.73;;;2.58;;
36233;SDS011;43467;50.890;5.982;2022-08-04T19:05:36;5.45;;;2.75;;
36233;SDS011;43467;50.890;5.982;2022-08-04T19:08:02;9.45;;;3.85;;
36233;SDS011;43467;50.890;5.982;2022-08-04T19:10:27;9.25;;;3.35;;
36233;SDS011;43467;50.890;5.982;2022-08-04T19:12:53;10.05;;;3.75;;
36233;SDS011;43467;50.890;5.982;2022-08-04T19:15:18;8.38;;;3.85;;
36233;SDS011;43467;50.890;5.982;2022-08-04T19:17:44;5.38;;;3.10;;
36233;SDS011;43467;50.890;5.982;2022-08-04T19:20:09;11.35;;;4.13;;
36233;SDS011;43467;50.890;5.982;2022-08-04T19:22:34;9.02;;;3.42;;
36233;SDS011;43467;50.890;5.982;2022-08-04T19:25:00;11.10;;;4.05;;
36233;SDS011;43467;50.890;5.982;2022-08-04T19:27:25;10.85;;;3.88;;
36233;SDS011;43467;50.890;5.982;2022-08-04T19:29:51;6.07;;;3.38;;
36233;SDS011;43467;50.890;5.982;2022-08-04T19:32:16;6.32;;;3.38;;
36233;SDS011;43467;50.890;5.982;2022-08-04T19:34:45;9.15;;;3.47;;
36233;SDS011;43467;50.890;5.982;2022-08-04T19:37:11;8.15;;;3.38;;
36233;SDS011;43467;50.890;5.982;2022-08-04T19:39:36;9.27;;;3.90;;
36233;SDS011;43467;50.890;5.982;2022-08-04T19:42:02;7.78;;;3.05;;
36233;SDS011;43467;50.890;5.982;2022-08-04T19:44:27;9.35;;;3.28;;
36233;SDS011;43467;50.890;5.982;2022-08-04T19:46:53;11.93;;;4.63;;
36233;SDS011;43467;50.890;5.982;2022-08-04T19:49:18;10.07;;;3.80;;
36233;SDS011;43467;50.890;5.982;2022-08-04T19:51:43;6.43;;;3.80;;
36233;SDS011;43467;50.890;5.982;2022-08-04T19:54:10;9.13;;;4.90;;
36233;SDS011;43467;50.890;5.982;2022-08-04T19:56:35;10.18;;;4.25;;
36233;SDS011;43467;50.890;5.982;2022-08-04T19:59:01;12.90;;;4.75;;
36233;SDS011;43467;50.890;5.982;2022-08-04T20:01:26;7.85;;;3.83;;